Airfield :
LOGIN :

Register | Disclaimer

   EN    FR    IT 

 










Legend :    VFR   Marginal VFR   IFR   Intensive IFR   Very Intensive IFR
Visi :
Ceiling :
>= 8 km
>= 3000ft
5 to 8 km
1000 to 3000 ft
1500m to 5 km
500 to 1000 ft
800 to 1500m
200 to 500 ft
< 800m
< 200 ft
Symbols :   Thunderstorms  Fog  Heavy snow  Heavy precipitations  Wind > 20 kt
SIGMETs :     Misc.  Thunderstorms  Icing  Turbulence  Mountain Waves  Volcanic Ashes






- Airport Elevation : 1276 ft
- IATA code : STR


EDDS - Stuttgart

CURRENT METAR :
  • 281250Z 23008KT 170V270 9999 FEW042 06/M04 Q1019 R25/290294 NOSIG

EXPIRED METARs :
  • 281220Z 24010KT 190V280 9999 SCT040 06/M03 Q1019 R25/290294 NOSIG
  • 281150Z 23008KT 190V280 9999 SCT035 05/M03 Q1020 R25/290294 NOSIG
  • 281120Z 24009KT 170V270 9999 SCT030TCU 05/M03 Q1020 R25/290294 NOSIG
  • 281050Z 25011KT 200V280 9999 SCT025TCU 04/M03 Q1021 R25/290294 NOSIG
  • 281020Z 22008KT 190V270 9999 SCT022TCU 05/M01 Q1020 R25/290294 NOSIG

TAF TAF EDDS
Valid from the 28 at 12:00 until the 29 at 12:00 UTC


281100Z 2812/2912 24010KT 9999 FEW015
BECMG 2815/2817 16004KT
PROB30
TEMPO 2822/2901 RA
BECMG 2909/2911 19012KT
TEMPO 2911/2912 20015G25KT



MET'MAP, your aeronautical weather chart ! - Copyright ORBIFLY December 2007 - Disclaimer

ORBIFLY MET'MAP TEAM :

Programming & Development : Alexandra Zaïnal
Concept & original design : Baudouin d'Aumeries
Assistance for programming : Marc-Olivier Méhu
Technical & hardware support : Manuel Goepfert

Contact : metmap@orbifly.com




SOURCES & CREDITS :

   NOAA